Moores Crossing, Texas
Current Conditions -  °F | °C
As of 1:53 AM on Sunday 26 Oct 2014 (Local Time) from KAUS Reporting Station
Few Clouds Few Clouds  
Wind Chill: 63°   Ceiling: Unl
Heat Index: 63°   Visibility: 10mi
Dew Point: 58°   Wind: 3mph
Humidity: 84%   Direction: 200°SSW
Pressure: 30.07"   Gusts: NA
Location:  30.1003°N, 97.6725°W
Report Text: KAUS 260653Z 20003KT 10SM FEW032 17/14 A3007 RMK AO2 SLP174 T01720144
Loading
Personal Weather Stations






























Interactive Weather Map
Tropical Storm Tracking
New forecast layout! Learn more

10-Day Weather Forecast

Advertisements
Track Severe Weather on mobile